Aérodrome :
LOGIN :

S'inscrire | Disclaimer

   EN    FR    IT 

 










Légende :    VFR   VFR Marginal   IFR   IFR Intensif   IFR Très Intensif
Visi : 
Plafond : 
>= 8 km
>= 3000ft
5 à 8 km
1000 à 3000 ft
1500m à 5 km
500 à 1000 ft
800 à 1500m
200 à 500 ft
< 800m
< 200 ft
Symboles :   Orages  Brouillard  Fortes neiges  Fortes précipitations  Vent > 20 kt
SIGMETs :   Divers  Orages  Givrage  Turbulence  Onde Orograph.  Cendres Volcan.







- Altitude de l'aérodrome : 1411 ft
- Code IATA : SZG


LOWS - Salzburg

DERNIER METAR :
  • 160450Z 16006KT 9999 FEW008 SCT035 BKN040 01/00 Q1003 TEMPO 4000

METARs EXPIRÉS :
  • 160420Z AUTO 17005KT 9999 FEW032 SCT036 BKN040 01/M00 Q1003
  • 160350Z AUTO 15005KT 120V190 9999 FEW034 BKN038 01/00 Q1003
  • 160320Z AUTO 17004KT 9999 FEW036 SCT038 BKN046 01/00 Q1003
  • 160250Z AUTO 15006KT 9999 FEW008 SCT042 BKN050 01/00 Q1003
  • 160220Z AUTO 21004KT 170V240 7000 -SN FEW007 SCT014 BKN030 00/M00 Q1003

TAF TAF LOWS
Valide du 16 à 00h jusqu'au 17 à 00h UTC


152315Z 1600/1624 15005KT 9999 FEW030 BKN050 TX01/1618Z TNM00/1623Z
BECMG 1606/1608 28006KT SCT015 BKN035
TEMPO 1606/1624 4500 -SN FEW005 BKN015
Pas de NOTAMs connus pour ce terrain.



MET'MAP, la Météo Aéronautique d'un coup d'oeil ! - Copyright ORBIFLY Décembre 2007 - Disclaimer

ORBIFLY MET'MAP TEAM :

Programmation & Développement : Alexandra Zaïnal
Conception & Développement : Baudouin d'Aumeries
Co-Programmation & Développement : Marc-Olivier Méhu
Soutien technique & logistique : Manuel Goepfert

Contact : metmap@orbifly.com




SOURCES & CREDITS :

   NOAA